Portada
METAR-TAF:

METAR-TAF

Aeroports :

Aeroport de Can Tho

Cần Thơ, Vietnam

latitud: 10-05-07N, longitud: 105-42-43E, altitud: 3 m

Observació

L'informe es va fer fa 39 minuts, a les 17:00 UTC
Vent 5 kt del Est/Sud-Est
Temperatura 27°C
Humitat 94%
Pressió 1009 hPa
Visibilitat 10 km o més
sense núvols per sota de 1500 mi sense presència de cumulonimbus.

METAR: VVCT 311700Z 12005KT CAVOK 27/26 Q1009 NOSIG

Hora: 00:39 (17:39 UTC)

Pronòstic

L'informe es va fer fa 6 hores i 39 minuts, a les 11:00 UTC
Pronòstic vàlid del 31 a les 12 UTC al 01 a les 12 UTC
Vent 3 kt amb direcció variable
Visibilitat 10 km o més
Núvols disperses a una alçada de 1500 ft
Evolucionant progressivament
l' 01 a les 00 UTC al 01 a les 01 UTC
Vent 10 kt del Est/Nord-Est

TAF: VVCT 311100Z 3112/0112 VRB03KT 9999 SCT015 BECMG 0100/0101 07010KT

Observacions i pronòstics meteorològics de més de 4000 aeroports (METAR i TAF).

Les estacions disponibles són els punts grocs i vermells al mapa.

Posi el ratolí al punt desitjat per veure el nom de l'estació.

Feu clic per veure les observacions i els pronòstics meteorològics.

Per canviar el mapa: feu clic els botons verds amb una creu de color negre per apropar; al botó verd amb un guió per allunyar la imatge; o en les fletxes verdes per a mapes adjacents.


METAR-TAF: